Time;durP1;ratioP1;P1;durP2;ratioP2;P2;SDS_P1;SDS_P2;PMS_P1;PMS_P2;Temp;Humidity;BMP_temperature;BMP_pressure;BME280_temperature;BME280_humidity;BME280_pressure;Samples;Min_cycle;Max_cycle;Signal;HPM_P1;HPM_P2
2021/04/29 00:00:14;;;;;;;55.42;21.00;;;13.50;99.90;;;;;;5070804;28;20045;-49
2021/04/29 00:02:39;;;;;;;51.72;18.95;;;13.30;99.90;;;;;;5070876;28;20082;-50
2021/04/29 00:05:08;;;;;;;48.50;18.23;;;13.20;99.90;;;;;;5073122;28;20438;-54
2021/04/29 00:07:35;;;;;;;50.42;19.80;;;13.00;99.90;;;;;;5070840;28;20059;-51
2021/04/29 00:10:01;;;;;;;42.30;18.00;;;12.90;99.90;;;;;;5072981;28;20021;-51
2021/04/29 00:12:27;;;;;;;58.45;18.80;;;12.90;99.90;;;;;;5076035;28;20040;-50
2021/04/29 00:14:52;;;;;;;54.30;17.45;;;12.90;99.90;;;;;;5093060;28;20081;-50
2021/04/29 00:17:18;;;;;;;50.65;17.67;;;12.70;99.90;;;;;;5091877;28;20019;-49
2021/04/29 00:19:44;;;;;;;55.38;18.65;;;12.70;99.90;;;;;;5097600;28;20083;-53
2021/04/29 00:22:10;;;;;;;45.67;17.05;;;12.70;99.90;;;;;;5103440;28;20020;-49
2021/04/29 00:24:35;;;;;;;56.95;17.77;;;12.70;99.90;;;;;;5113189;28;20080;-51
2021/04/29 00:27:01;;;;;;;47.58;17.15;;;12.60;99.90;;;;;;5113346;28;20486;-51
2021/04/29 00:29:27;;;;;;;38.78;15.82;;;12.70;99.90;;;;;;5111198;28;20161;-50
2021/04/29 00:31:52;;;;;;;38.22;14.65;;;12.70;99.90;;;;;;5115257;28;20024;-54
2021/04/29 00:34:18;;;;;;;40.10;15.40;;;12.70;99.90;;;;;;5099672;28;20024;-55
2021/04/29 00:36:44;;;;;;;34.45;14.70;;;12.70;99.90;;;;;;5057237;28;20043;-53
2021/04/29 00:39:10;;;;;;;32.50;15.13;;;12.70;99.90;;;;;;5080281;28;20024;-50
2021/04/29 00:41:35;;;;;;;28.15;13.32;;;12.80;99.90;;;;;;5057464;28;20071;-51
2021/04/29 00:44:01;;;;;;;30.92;15.23;;;12.70;99.90;;;;;;5094307;28;20456;-50
2021/04/29 00:46:28;;;;;;;25.15;13.77;;;12.70;99.90;;;;;;5083034;28;20089;-53
2021/04/29 00:48:55;;;;;;;30.65;15.25;;;12.60;99.90;;;;;;5096213;28;20028;-53
2021/04/29 00:51:21;;;;;;;28.48;13.30;;;12.60;99.90;;;;;;5096636;28;20079;-50
2021/04/29 00:53:47;;;;;;;26.63;12.30;;;12.70;99.90;;;;;;5074506;28;20078;-52
2021/04/29 00:56:14;;;;;;;26.23;13.13;;;12.70;99.90;;;;;;5076181;28;20039;-51
2021/04/29 00:58:40;;;;;;;24.02;13.48;;;12.90;99.90;;;;;;5075986;28;20070;-52
2021/04/29 01:01:07;;;;;;;28.73;13.50;;;12.90;99.90;;;;;;5074030;28;20514;-54
2021/04/29 01:03:38;;;;;;;30.38;13.48;;;12.70;99.90;;;;;;5071591;28;20059;-51
2021/04/29 01:06:19;;;;;;;33.03;13.90;;;12.80;99.90;;;;;;5096782;28;20028;-53
2021/04/29 01:09:03;;;;;;;25.58;13.05;;;12.80;99.90;;;;;;5097845;28;20062;-55
2021/04/29 01:11:33;;;;;;;29.05;13.50;;;12.90;99.90;;;;;;5116576;28;20400;-51
2021/04/29 01:14:03;;;;;;;27.73;13.45;;;12.90;99.90;;;;;;5115609;28;20616;-53
2021/04/29 01:16:30;;;;;;;24.88;12.82;;;12.90;99.90;;;;;;5100182;27;20034;-53
2021/04/29 01:18:58;;;;;;;26.50;14.23;;;12.90;99.90;;;;;;5116128;28;20027;-50
2021/04/29 01:21:28;;;;;;;31.20;12.35;;;12.90;99.90;;;;;;5101335;28;20055;-50
2021/04/29 01:24:23;;;;;;;28.63;13.73;;;12.80;99.90;;;;;;5075402;28;20094;-49
2021/04/29 01:26:56;;;;;;;23.27;13.27;;;13.00;99.90;;;;;;5075292;28;20038;-50
2021/04/29 01:29:29;;;;;;;27.52;13.90;;;13.00;99.90;;;;;;5075427;28;20036;-53
2021/04/29 01:31:56;;;;;;;28.17;13.95;;;12.90;99.90;;;;;;5092108;28;20038;-47
2021/04/29 01:34:23;;;;;;;26.48;14.35;;;12.80;99.90;;;;;;5095834;28;20046;-51
2021/04/29 01:36:51;;;;;;;21.52;12.10;;;12.80;99.90;;;;;;5107739;28;20118;-49
2021/04/29 01:39:18;;;;;;;24.02;13.40;;;12.70;99.90;;;;;;5095716;28;20036;-53
2021/04/29 01:41:47;;;;;;;22.67;12.80;;;12.80;99.90;;;;;;5110607;28;20063;-52
2021/04/29 01:44:14;;;;;;;27.02;13.13;;;12.90;99.90;;;;;;5094351;28;20413;-48
2021/04/29 01:46:40;;;;;;;24.33;12.77;;;13.00;99.90;;;;;;5094828;28;20119;-52
2021/04/29 01:49:09;;;;;;;25.20;13.00;;;13.20;99.90;;;;;;5110352;28;20036;-51
2021/04/29 01:51:36;;;;;;;25.40;14.10;;;13.20;99.90;;;;;;5102555;28;20080;-51
2021/04/29 01:54:03;;;;;;;26.95;12.93;;;13.10;99.90;;;;;;5115698;28;20370;-55
2021/04/29 01:56:29;;;;;;;22.83;12.32;;;13.40;99.90;;;;;;5115589;28;20390;-51
2021/04/29 01:58:55;;;;;;;25.85;14.02;;;13.40;99.90;;;;;;5115300;28;20482;-54
2021/04/29 02:01:22;;;;;;;25.60;14.80;;;13.10;99.90;;;;;;5115556;28;20106;-49
2021/04/29 02:03:48;;;;;;;25.02;13.82;;;13.10;99.90;;;;;;5115433;28;20032;-51
2021/04/29 02:06:14;;;;;;;24.13;13.93;;;13.10;99.90;;;;;;5115324;28;20076;-51
2021/04/29 02:08:40;;;;;;;25.20;13.63;;;13.10;99.90;;;;;;5130524;27;20412;-52
2021/04/29 02:11:08;;;;;;;23.38;14.00;;;13.10;99.90;;;;;;5130368;27;20035;-52
2021/04/29 02:13:36;;;;;;;22.38;12.13;;;13.10;99.90;;;;;;5115351;28;20093;-52
2021/04/29 02:16:07;;;;;;;25.05;13.65;;;13.10;99.90;;;;;;5115133;28;20019;-49
2021/04/29 02:18:34;;;;;;;25.88;13.68;;;13.20;99.90;;;;;;5115106;28;20038;-50
2021/04/29 02:21:00;;;;;;;22.45;13.35;;;13.20;99.90;;;;;;5114958;28;20054;-53
2021/04/29 02:23:27;;;;;;;21.05;12.43;;;12.90;99.90;;;;;;5115137;28;20358;-53
2021/04/29 02:25:55;;;;;;;23.00;13.55;;;12.70;99.90;;;;;;5114926;28;20015;-52
2021/04/29 02:28:22;;;;;;;22.00;12.63;;;12.60;99.90;;;;;;5115248;28;20034;-50
2021/04/29 02:30:49;;;;;;;21.63;11.63;;;12.50;99.90;;;;;;5115258;28;20059;-52
2021/04/29 02:33:16;;;;;;;20.42;11.73;;;12.30;99.90;;;;;;5096212;28;20040;-51
2021/04/29 02:35:44;;;;;;;18.98;11.95;;;12.20;99.90;;;;;;5093037;28;20028;-51
2021/04/29 02:38:13;;;;;;;17.88;10.20;;;12.10;99.90;;;;;;5076391;28;20024;-52
2021/04/29 02:40:38;;;;;;;16.70;12.05;;;12.10;99.90;;;;;;5094304;28;20051;-49
2021/04/29 02:43:05;;;;;;;20.00;12.18;;;12.30;99.90;;;;;;5094056;28;20467;-48
2021/04/29 02:45:31;;;;;;;18.13;10.90;;;12.40;99.90;;;;;;5094622;28;20377;-53
2021/04/29 02:47:57;;;;;;;19.73;10.77;;;12.60;99.90;;;;;;5094289;28;20028;-50
2021/04/29 02:50:24;;;;;;;15.77;10.93;;;12.50;99.90;;;;;;5094094;28;20036;-51
2021/04/29 02:52:52;;;;;;;16.23;10.02;;;12.70;99.90;;;;;;5094215;28;20029;-47
2021/04/29 02:55:22;;;;;;;18.08;10.02;;;12.60;99.90;;;;;;5094230;28;20034;-50
2021/04/29 02:57:48;;;;;;;19.10;9.98;;;12.60;99.90;;;;;;5094055;28;20097;-52
2021/04/29 03:00:17;;;;;;;13.50;9.73;;;12.40;99.90;;;;;;5109101;28;20609;-53
2021/04/29 03:02:43;;;;;;;16.48;10.57;;;12.40;99.90;;;;;;5098570;28;20134;-52
2021/04/29 03:05:12;;;;;;;17.17;10.73;;;12.20;99.90;;;;;;5114299;28;20386;-51
2021/04/29 03:07:39;;;;;;;13.07;9.55;;;12.20;99.90;;;;;;5112446;28;20043;-53
2021/04/29 03:10:09;;;;;;;15.60;9.48;;;12.40;99.90;;;;;;5114317;28;20391;-52
2021/04/29 03:12:35;;;;;;;12.80;8.75;;;12.30;99.90;;;;;;5128961;27;20417;-54
2021/04/29 03:15:02;;;;;;;13.13;8.43;;;12.40;99.90;;;;;;5114437;28;20462;-54
2021/04/29 03:17:28;;;;;;;12.82;8.32;;;12.20;99.90;;;;;;5114207;28;20076;-50
2021/04/29 03:19:54;;;;;;;10.15;7.68;;;12.40;99.90;;;;;;5111955;28;20123;-53
2021/04/29 03:22:20;;;;;;;10.88;8.48;;;12.30;99.90;;;;;;5111904;28;20431;-50
2021/04/29 03:24:48;;;;;;;11.45;8.23;;;12.30;99.90;;;;;;5113934;28;20027;-54
2021/04/29 03:27:14;;;;;;;11.95;6.95;;;12.40;99.90;;;;;;5114253;28;20074;-53
2021/04/29 03:29:40;;;;;;;12.80;8.07;;;12.10;99.90;;;;;;5114191;28;20042;-54
2021/04/29 03:32:05;;;;;;;15.35;7.82;;;12.10;99.90;;;;;;5105387;28;20048;-54
2021/04/29 03:34:31;;;;;;;13.63;6.95;;;;;;;;;;5075918;28;20029;-54
2021/04/29 03:36:57;;;;;;;10.55;6.63;;;11.90;99.90;;;;;;5073801;28;20032;-50
2021/04/29 03:39:23;;;;;;;11.45;7.60;;;11.90;99.90;;;;;;5054482;28;20041;-52
2021/04/29 03:41:49;;;;;;;12.43;8.00;;;11.80;99.90;;;;;;5072983;28;20029;-49
2021/04/29 03:44:15;;;;;;;11.38;7.55;;;11.90;99.90;;;;;;5072515;28;20131;-50
2021/04/29 03:46:40;;;;;;;9.82;7.72;;;11.80;99.90;;;;;;5071009;28;20129;-50
2021/04/29 03:49:06;;;;;;;11.10;7.80;;;11.70;99.90;;;;;;5073025;28;20382;-53
2021/04/29 03:51:32;;;;;;;13.20;7.47;;;11.80;99.90;;;;;;5072320;28;20544;-50
2021/04/29 03:53:58;;;;;;;10.93;7.63;;;11.80;99.90;;;;;;5053997;28;20036;-54
2021/04/29 03:56:24;;;;;;;11.38;7.28;;;12.00;99.90;;;;;;5071104;28;20037;-49
2021/04/29 03:58:49;;;;;;;10.38;7.50;;;12.10;99.90;;;;;;5073300;28;20074;-55
2021/04/29 04:01:15;;;;;;;11.13;7.72;;;12.20;99.90;;;;;;5073104;28;20029;-50
2021/04/29 04:03:41;;;;;;;10.93;7.55;;;12.30;99.90;;;;;;5077130;28;20032;-55
2021/04/29 04:06:08;;;;;;;9.60;6.68;;;12.20;99.90;;;;;;5093960;28;20444;-52
2021/04/29 04:08:34;;;;;;;10.13;7.00;;;12.10;99.90;;;;;;5097223;28;20110;-54
2021/04/29 04:10:59;;;;;;;7.22;5.97;;;12.00;99.90;;;;;;5097151;28;20428;-50
2021/04/29 04:13:25;;;;;;;11.73;6.55;;;11.90;99.90;;;;;;5094658;28;20434;-50
2021/04/29 04:15:51;;;;;;;10.63;6.82;;;11.80;99.90;;;;;;5028051;28;20533;-50
2021/04/29 04:18:17;;;;;;;12.32;8.02;;;11.70;99.90;;;;;;5094722;28;20028;-51
2021/04/29 04:20:43;;;;;;;8.40;6.25;;;11.70;99.90;;;;;;5110342;28;20024;-50
2021/04/29 04:23:09;;;;;;;9.25;6.72;;;11.90;99.90;;;;;;5115142;28;20073;-53
2021/04/29 04:25:35;;;;;;;9.85;6.43;;;11.90;99.90;;;;;;5080752;28;20035;-53
2021/04/29 04:28:01;;;;;;;9.35;6.90;;;11.80;99.90;;;;;;5081043;28;20036;-51
2021/04/29 04:30:27;;;;;;;11.00;7.15;;;;;;;;;;5097058;28;20043;-51
2021/04/29 04:32:53;;;;;;;10.40;7.30;;;11.80;99.90;;;;;;5071203;28;20158;-53
2021/04/29 04:35:19;;;;;;;12.75;7.72;;;12.00;99.90;;;;;;5087184;28;20111;-51
2021/04/29 04:37:45;;;;;;;12.02;6.93;;;12.00;99.90;;;;;;5094386;28;20060;-53
2021/04/29 04:40:12;;;;;;;9.25;6.78;;;12.00;99.90;;;;;;5094382;28;20501;-54
2021/04/29 04:42:39;;;;;;;10.18;7.47;;;12.20;99.90;;;;;;5046389;28;20045;-51
2021/04/29 04:45:07;;;;;;;10.60;6.97;;;12.20;99.90;;;;;;5018873;28;20087;-52
2021/04/29 04:47:33;;;;;;;10.13;6.75;;;12.30;99.90;;;;;;5035902;28;20122;-53
2021/04/29 04:49:59;;;;;;;13.98;6.63;;;12.10;99.90;;;;;;5053299;28;20079;-54
2021/04/29 04:52:25;;;;;;;11.15;7.30;;;;;;;;;;5051219;28;20095;-51
2021/04/29 04:54:52;;;;;;;9.15;6.97;;;;;;;;;;5052540;28;20013;-48
2021/04/29 04:57:18;;;;;;;10.07;7.07;;;;;;;;;;5052992;28;20029;-53
2021/04/29 04:59:44;;;;;;;9.73;6.68;;;;;;;;;;5051974;28;20557;-54
2021/04/29 05:02:11;;;;;;;11.27;6.90;;;;;;;;;;5052974;28;20053;-50
2021/04/29 05:04:37;;;;;;;8.73;5.82;;;;;;;;;;5053634;28;20032;-53
2021/04/29 05:07:06;;;;;;;8.35;6.15;;;;;;;;;;5038644;28;20064;-50
2021/04/29 05:09:33;;;;;;;8.98;5.43;;;;;;;;;;5054654;28;20040;-51
2021/04/29 05:11:59;;;;;;;8.00;5.70;;;;;;;;;;5053957;28;20032;-49
2021/04/29 05:14:26;;;;;;;6.30;5.10;;;;;;;;;;5072128;28;20074;-54
2021/04/29 05:16:52;;;;;;;8.50;5.78;;;;;;;;;;5079809;28;20068;-52
2021/04/29 05:19:18;;;;;;;8.50;5.63;;;;;;;;;;5084206;28;20028;-49
2021/04/29 05:21:44;;;;;;;9.38;5.95;;;;;;;;;;5075796;28;20050;-53
2021/04/29 05:24:10;;;;;;;9.93;6.53;;;;;;;;;;5056799;28;20082;-48
2021/04/29 05:26:36;;;;;;;7.95;5.85;;;;;;;;;;5075642;28;20120;-49
2021/04/29 05:29:03;;;;;;;8.55;5.80;;;12.70;99.90;;;;;;5040330;28;20047;-51
2021/04/29 05:31:29;;;;;;;9.65;6.00;;;12.70;99.90;;;;;;5100943;28;20020;-51
2021/04/29 05:33:55;;;;;;;8.30;5.70;;;12.80;99.90;;;;;;5079865;28;20052;-51
2021/04/29 05:36:20;;;;;;;6.88;5.38;;;12.80;99.90;;;;;;5094797;28;20089;-50
2021/04/29 05:38:46;;;;;;;8.27;6.60;;;12.90;99.90;;;;;;5057630;28;20036;-54
2021/04/29 05:41:12;;;;;;;8.48;5.30;;;12.70;99.90;;;;;;5093267;28;20475;-51
2021/04/29 05:43:38;;;;;;;7.78;6.30;;;12.50;99.90;;;;;;5095742;28;20106;-50
2021/04/29 05:46:03;;;;;;;8.43;5.95;;;12.70;99.90;;;;;;5095740;28;20348;-51
2021/04/29 05:48:29;;;;;;;7.78;5.80;;;12.70;99.90;;;;;;5095307;28;20394;-51
2021/04/29 05:50:56;;;;;;;7.88;5.68;;;;;;;;;;5090921;28;20410;-50
2021/04/29 05:53:21;;;;;;;8.98;7.13;;;12.80;99.90;;;;;;5095229;28;20024;-50
2021/04/29 05:55:47;;;;;;;9.75;5.80;;;12.80;99.90;;;;;;5095336;28;20077;-51
2021/04/29 05:58:13;;;;;;;9.63;6.32;;;13.00;99.90;;;;;;5095184;28;20028;-51
2021/04/29 06:00:39;;;;;;;8.73;6.55;;;13.00;99.90;;;;;;5095265;28;20028;-51
2021/04/29 06:03:05;;;;;;;8.73;5.70;;;12.90;99.90;;;;;;5094823;28;20028;-50
2021/04/29 06:05:31;;;;;;;7.97;5.13;;;13.10;99.90;;;;;;5095453;28;20043;-51
2021/04/29 06:08:01;;;;;;;7.78;5.15;;;13.00;99.90;;;;;;5095104;28;20470;-51
2021/04/29 06:10:28;;;;;;;9.73;6.78;;;13.00;99.90;;;;;;5095234;28;20497;-50
2021/04/29 06:12:54;;;;;;;8.60;6.22;;;13.10;99.90;;;;;;5094945;28;20048;-50
2021/04/29 06:15:20;;;;;;;8.10;5.70;;;13.20;99.90;;;;;;5094991;28;20028;-51
2021/04/29 06:17:46;;;;;;;7.88;6.30;;;13.20;99.90;;;;;;5094851;28;20074;-50
2021/04/29 06:20:14;;;;;;;9.27;6.47;;;13.60;99.90;;;;;;5095122;28;20028;-50
2021/04/29 06:22:40;;;;;;;10.40;6.57;;;13.40;99.90;;;;;;5095054;28;20032;-53
2021/04/29 06:25:07;;;;;;;9.07;6.47;;;;;;;;;;5095370;28;20059;-50
2021/04/29 06:27:34;;;;;;;9.82;6.15;;;13.80;99.90;;;;;;5059010;28;20051;-51
2021/04/29 06:30:00;;;;;;;8.60;6.30;;;14.10;99.90;;;;;;5094522;28;20027;-51
2021/04/29 06:32:26;;;;;;;10.80;6.00;;;14.50;99.90;;;;;;5094556;28;20379;-51
2021/04/29 06:34:52;;;;;;;8.45;6.47;;;14.50;99.90;;;;;;5094822;28;20031;-50
2021/04/29 06:37:18;;;;;;;8.45;6.50;;;;;;;;;;5058369;28;20035;-50
2021/04/29 06:39:46;;;;;;;9.90;6.57;;;14.90;99.90;;;;;;5092094;28;20040;-52
2021/04/29 06:42:12;;;;;;;9.90;6.13;;;;;;;;;;5092168;28;20482;-52
2021/04/29 06:44:39;;;;;;;8.45;6.40;;;15.40;99.90;;;;;;5058319;28;20028;-50
2021/04/29 06:47:05;;;;;;;7.53;6.05;;;;;;;;;;5074339;28;20056;-50
2021/04/29 06:49:31;;;;;;;10.13;6.22;;;;;;;;;;5058518;28;20039;-50
2021/04/29 06:51:56;;;;;;;8.77;6.32;;;15.60;99.90;;;;;;5091918;28;20067;-52
2021/04/29 06:54:22;;;;;;;10.27;6.93;;;15.50;99.90;;;;;;5091903;28;20074;-50
2021/04/29 06:56:48;;;;;;;8.77;5.78;;;15.40;99.90;;;;;;5092377;28;20039;-52
2021/04/29 06:59:14;;;;;;;9.32;6.20;;;15.70;99.90;;;;;;5091930;28;20028;-51
2021/04/29 07:01:40;;;;;;;6.85;6.03;;;15.40;99.90;;;;;;5058014;28;20044;-51
2021/04/29 07:04:06;;;;;;;8.63;5.85;;;;;;;;;;5057937;28;20131;-51
2021/04/29 07:06:32;;;;;;;11.15;5.93;;;;;;;;;;5024690;28;20040;-51
2021/04/29 07:08:59;;;;;;;7.53;5.22;;;16.20;99.90;;;;;;5093303;28;20038;-51
2021/04/29 07:11:26;;;;;;;9.63;6.20;;;16.20;99.90;;;;;;5094184;28;20031;-50
2021/04/29 07:13:52;;;;;;;7.47;5.50;;;16.00;99.90;;;;;;5108643;28;20052;-52
2021/04/29 07:16:18;;;;;;;10.65;6.22;;;;;;;;;;5093701;28;20379;-51
2021/04/29 07:18:44;;;;;;;7.25;5.82;;;16.80;99.90;;;;;;5075094;28;20047;-51
2021/04/29 07:21:10;;;;;;;10.15;6.10;;;16.70;99.90;;;;;;5057418;28;20040;-51
2021/04/29 07:23:36;;;;;;;8.95;6.07;;;16.70;99.90;;;;;;5093884;28;20055;-50
2021/04/29 07:26:02;;;;;;;8.57;6.15;;;16.50;99.90;;;;;;5094105;28;20351;-50
2021/04/29 07:28:27;;;;;;;8.13;6.13;;;16.30;99.90;;;;;;5091781;28;20058;-50
2021/04/29 07:30:54;;;;;;;8.38;6.32;;;16.70;99.90;;;;;;5091651;28;20036;-51
2021/04/29 07:33:20;;;;;;;9.13;6.10;;;17.20;99.90;;;;;;5093471;28;20074;-51
2021/04/29 07:35:46;;;;;;;8.27;5.90;;;17.10;99.90;;;;;;5093796;28;20023;-50
2021/04/29 07:38:12;;;;;;;8.77;6.25;;;17.10;99.90;;;;;;5093870;28;20020;-50
2021/04/29 07:40:38;;;;;;;7.03;4.88;;;17.20;99.90;;;;;;5092931;28;20111;-50
2021/04/29 07:43:04;;;;;;;9.38;6.70;;;16.60;99.90;;;;;;5093288;28;20107;-51
2021/04/29 07:45:31;;;;;;;12.48;6.63;;;17.00;99.90;;;;;;5093479;28;20066;-50
2021/04/29 07:47:57;;;;;;;9.13;6.45;;;16.90;99.90;;;;;;5093762;28;20028;-50
2021/04/29 07:50:23;;;;;;;7.78;5.63;;;17.10;99.90;;;;;;5093636;28;20021;-51
2021/04/29 07:52:49;;;;;;;8.90;5.78;;;17.50;99.90;;;;;;5093222;28;20020;-50
2021/04/29 07:55:16;;;;;;;6.88;4.75;;;17.90;99.90;;;;;;5108408;28;20106;-51
2021/04/29 07:57:43;;;;;;;7.68;5.65;;;17.90;99.90;;;;;;5093153;28;20025;-50
2021/04/29 08:00:13;;;;;;;5.85;4.80;;;18.10;99.90;;;;;;5093823;28;20092;-50
2021/04/29 08:02:41;;;;;;;7.68;5.03;;;18.30;99.90;;;;;;5091302;28;20032;-51
2021/04/29 08:05:08;;;;;;;12.38;6.43;;;18.50;99.90;;;;;;5093533;28;20066;-51
2021/04/29 08:07:34;;;;;;;7.45;5.43;;;;;;;;;;5093172;28;20114;-51
2021/04/29 08:10:00;;;;;;;9.00;5.70;;;;;;;;;;5093734;28;20029;-50
2021/04/29 08:12:26;;;;;;;7.82;5.00;;;;;;;;;;5093191;28;20459;-51
2021/04/29 08:14:56;;;;;;;7.45;5.00;;;18.80;99.90;;;;;;5093244;28;20051;-50
2021/04/29 08:17:22;;;;;;;6.38;4.95;;;18.90;99.90;;;;;;5093576;28;20036;-51
2021/04/29 08:19:48;;;;;;;7.05;4.85;;;19.00;99.90;;;;;;5093244;28;20528;-50
2021/04/29 08:22:14;;;;;;;8.38;5.13;;;19.10;99.90;;;;;;5092490;28;20036;-52
2021/04/29 08:24:40;;;;;;;6.93;5.03;;;19.30;99.90;;;;;;5110286;28;20139;-52
2021/04/29 08:27:06;;;;;;;7.63;5.32;;;;;;;;;;5110584;28;20055;-52
2021/04/29 08:29:32;;;;;;;8.15;5.75;;;;;;;;;;5109623;28;20031;-51
2021/04/29 08:31:59;;;;;;;6.85;5.32;;;19.80;99.90;;;;;;5076577;28;20043;-51
2021/04/29 08:34:25;;;;;;;9.23;5.55;;;19.30;99.90;;;;;;5109934;28;20498;-51
2021/04/29 08:36:52;;;;;;;6.05;5.00;;;;;;;;;;5110336;28;20036;-51
2021/04/29 08:39:18;;;;;;;7.50;5.05;;;;;;;;;;5108345;28;20432;-51
2021/04/29 08:41:44;;;;;;;7.63;5.20;;;;;;;;;;5110381;28;20035;-52
2021/04/29 08:44:10;;;;;;;5.57;4.53;;;20.40;99.90;;;;;;5093017;28;20051;-51
2021/04/29 08:46:36;;;;;;;7.15;4.97;;;;;;;;;;5110022;28;20390;-51
2021/04/29 08:49:03;;;;;;;6.43;4.97;;;;;;;;;;5104500;28;20514;-52
2021/04/29 08:51:29;;;;;;;6.43;4.85;;;21.10;99.90;;;;;;5110877;28;20028;-50
2021/04/29 08:53:56;;;;;;;7.15;4.97;;;21.20;99.90;;;;;;5079328;28;20046;-51
2021/04/29 08:56:23;;;;;;;6.55;5.03;;;21.40;99.90;;;;;;5100775;27;20036;-52
2021/04/29 08:58:59;;;;;;;5.85;4.53;;;21.60;99.90;;;;;;5093931;28;20028;-51
2021/04/29 09:01:25;;;;;;;5.60;4.00;;;;;;;;;;5094354;28;20028;-51
2021/04/29 09:03:51;;;;;;;8.82;5.25;;;21.60;99.90;;;;;;5095661;28;20025;-51
2021/04/29 09:06:29;;;;;;;6.57;4.70;;;21.50;99.90;;;;;;5093390;28;20036;-51
2021/04/29 09:08:57;;;;;;;5.50;4.18;;;21.50;99.90;;;;;;5087111;28;20040;-51
2021/04/29 09:11:23;;;;;;;6.90;4.80;;;22.10;99.90;;;;;;5110510;27;20036;-51
2021/04/29 09:14:02;;;;;;;6.32;4.40;;;22.50;99.90;;;;;;5075715;28;20106;-47
2021/04/29 09:16:42;;;;;;;7.20;4.50;;;;;;;;;;5073167;28;20040;-49
2021/04/29 09:19:24;;;;;;;7.05;5.40;;;;;;;;;;5110888;27;20045;-52
2021/04/29 09:21:51;;;;;;;5.95;4.60;;;22.90;99.90;;;;;;5102572;28;20387;-51
2021/04/29 09:24:17;;;;;;;5.20;4.00;;;22.70;99.90;;;;;;5113195;28;20069;-51
2021/04/29 09:26:43;;;;;;;6.38;4.10;;;;;;;;;;5113336;28;20035;-48
2021/04/29 09:29:15;;;;;;;5.40;4.25;;;23.30;99.90;;;;;;5112867;28;20044;-49
2021/04/29 09:31:42;;;;;;;;;;;23.60;99.90;;;;;;5113556;28;20080;-48
2021/04/29 09:34:08;;;;;;;7.53;3.70;;;23.40;99.90;;;;;;5113083;28;20428;-50
2021/04/29 09:36:42;;;;;;;6.53;3.50;;;23.60;99.90;;;;;;5051836;28;20588;-48
2021/04/29 09:39:16;;;;;;;7.80;4.13;;;24.10;99.90;;;;;;5111394;28;20486;-48
2021/04/29 09:41:48;;;;;;;5.53;3.25;;;24.30;99.90;;;;;;5111992;28;20023;-48
2021/04/29 09:44:14;;;;;;;4.73;3.40;;;24.40;99.90;;;;;;5112770;28;20522;-48
2021/04/29 09:46:42;;;;;;;4.90;3.70;;;;;;;;;;5104028;28;20065;-48
2021/04/29 09:49:30;;;;;;;4.63;3.13;;;24.50;99.90;;;;;;5111288;28;20054;-48
2021/04/29 09:51:58;;;;;;;4.95;2.97;;;24.80;99.90;;;;;;5094809;28;20028;-48
2021/04/29 09:54:24;;;;;;;5.13;3.72;;;24.30;99.90;;;;;;5094929;28;20358;-47
2021/04/29 09:56:59;;;;;;;6.00;3.40;;;24.80;99.90;;;;;;5094766;28;20032;-49
2021/04/29 09:59:25;;;;;;;7.28;3.60;;;25.00;99.90;;;;;;5095135;28;20074;-50
2021/04/29 10:01:53;;;;;;;4.78;3.45;;;25.50;99.90;;;;;;5110115;28;20036;-48
2021/04/29 10:04:21;;;;;;;8.32;3.60;;;25.60;99.90;;;;;;5094376;28;20060;-48
2021/04/29 10:06:47;;;;;;;6.95;4.50;;;25.60;99.90;;;;;;5109873;28;20040;-48
2021/04/29 10:09:14;;;;;;;5.00;3.42;;;25.50;99.90;;;;;;5095107;28;20066;-49
2021/04/29 10:11:42;;;;;;;6.30;3.63;;;25.30;99.90;;;;;;5109958;28;20126;-48
2021/04/29 10:14:10;;;;;;;9.50;3.97;;;25.50;99.90;;;;;;5094993;28;20100;-48
2021/04/29 10:16:36;;;;;;;5.85;3.05;;;26.10;99.90;;;;;;5094902;28;20032;-48
2021/04/29 10:19:02;;;;;;;6.13;3.38;;;26.40;99.90;;;;;;5094883;28;20061;-49
2021/04/29 10:21:28;;;;;;;6.20;3.05;;;26.30;99.90;;;;;;5109433;28;20118;-49
2021/04/29 10:23:54;;;;;;;6.60;3.13;;;26.80;99.90;;;;;;5094751;28;20032;-48
2021/04/29 10:26:28;;;;;;;3.38;3.03;;;26.90;99.90;;;;;;5094605;28;20039;-49
2021/04/29 10:29:02;;;;;;;4.70;3.13;;;26.60;99.90;;;;;;5094339;28;20079;-49
2021/04/29 10:31:31;;;;;;;4.70;3.25;;;26.70;99.90;;;;;;5109691;28;20032;-49
2021/04/29 10:34:18;;;;;;;5.05;2.70;;;26.80;99.90;;;;;;5094935;28;20028;-49
2021/04/29 10:36:47;;;;;;;5.82;3.20;;;27.00;99.90;;;;;;5094400;28;20091;-48
2021/04/29 10:39:17;;;;;;;4.22;2.33;;;27.10;99.90;;;;;;5109412;28;20083;-49
2021/04/29 10:41:45;;;;;;;5.20;2.88;;;26.40;99.90;;;;;;5094410;28;20410;-48
2021/04/29 10:44:16;;;;;;;4.65;2.95;;;26.60;99.90;;;;;;5109061;28;20036;-48
2021/04/29 10:46:43;;;;;;;5.50;2.60;;;26.50;99.90;;;;;;5094327;28;20028;-49
2021/04/29 10:49:13;;;;;;;5.43;3.10;;;27.00;99.90;;;;;;5094258;28;20080;-49
2021/04/29 10:51:44;;;;;;;4.47;2.72;;;27.40;99.90;;;;;;5094037;28;20036;-49
2021/04/29 10:54:22;;;;;;;6.72;3.08;;;27.10;98.50;;;;;;5094513;28;20028;-48
2021/04/29 10:57:02;;;;;;;7.15;3.35;;;27.20;99.40;;;;;;5094108;28;20028;-48
2021/04/29 10:59:55;;;;;;;6.50;2.33;;;27.90;99.90;;;;;;5094296;28;20392;-48
2021/04/29 11:02:29;;;;;;;4.57;2.75;;;28.20;99.90;;;;;;5094134;28;20042;-49
2021/04/29 11:04:55;;;;;;;4.80;2.75;;;28.40;99.00;;;;;;5094225;28;20479;-47
2021/04/29 11:07:24;;;;;;;6.10;2.97;;;27.90;99.10;;;;;;5093730;28;20048;-49
2021/04/29 11:10:22;;;;;;;5.00;2.60;;;27.90;98.50;;;;;;5108831;28;20115;-48
2021/04/29 11:12:49;;;;;;;3.92;2.60;;;27.50;97.60;;;;;;5050774;28;20439;-48
2021/04/29 11:15:36;;;;;;;4.45;2.90;;;27.70;97.90;;;;;;5051348;28;20111;-48
2021/04/29 11:18:20;;;;;;;3.47;2.58;;;27.90;97.60;;;;;;5051252;28;20102;-48
2021/04/29 11:20:57;;;;;;;7.13;3.05;;;28.20;97.30;;;;;;5050872;28;20185;-48
2021/04/29 11:23:28;;;;;;;5.43;2.42;;;28.30;96.50;;;;;;5051046;28;20132;-48
2021/04/29 11:26:19;;;;;;;6.45;2.58;;;27.70;95.40;;;;;;5051185;28;20483;-49
2021/04/29 11:28:45;;;;;;;6.90;3.07;;;28.10;96.50;;;;;;5050937;28;20041;-49
2021/04/29 11:31:11;;;;;;;6.35;3.28;;;28.20;95.10;;;;;;5051212;28;20040;-48
2021/04/29 11:33:49;;;;;;;5.38;2.33;;;28.20;93.70;;;;;;5051074;28;20033;-49
2021/04/29 11:36:26;;;;;;;4.00;2.00;;;28.70;95.20;;;;;;5050821;28;20372;-49
2021/04/29 11:38:56;;;;;;;3.83;2.60;;;29.00;93.00;;;;;;5006004;28;20086;-49
2021/04/29 11:41:24;;;;;;;7.03;2.60;;;29.00;94.90;;;;;;5051342;28;20098;-48
2021/04/29 11:44:00;;;;;;;5.25;3.15;;;28.60;93.70;;;;;;5017489;28;20383;-49
2021/04/29 11:46:26;;;;;;;6.85;2.90;;;28.60;94.70;;;;;;5050896;28;20044;-48
2021/04/29 11:49:05;;;;;;;5.85;3.03;;;27.90;93.10;;;;;;5033282;28;20055;-48
2021/04/29 11:51:34;;;;;;;7.43;2.58;;;27.60;92.80;;;;;;5093413;28;20111;-49
2021/04/29 11:54:04;;;;;;;7.47;2.60;;;28.30;93.70;;;;;;5093322;28;20079;-49
2021/04/29 11:56:44;;;;;;;6.32;2.63;;;;;;;;;;5108553;28;20111;-49
2021/04/29 11:59:11;;;;;;;5.75;2.30;;;28.70;93.80;;;;;;5094202;28;20058;-48
2021/04/29 12:01:38;;;;;;;4.78;2.63;;;29.00;92.10;;;;;;5093433;28;20028;-48
2021/04/29 12:04:17;;;;;;;4.38;2.67;;;29.30;92.50;;;;;;5092962;28;20119;-49
2021/04/29 12:06:58;;;;;;;7.90;2.55;;;29.60;95.70;;;;;;5107724;28;20052;-52
2021/04/29 12:09:26;;;;;;;5.63;2.38;;;28.40;93.30;;;;;;5108204;28;20509;-49
2021/04/29 12:11:52;;;;;;;4.80;2.40;;;28.70;91.20;;;;;;5107585;28;20076;-47
2021/04/29 12:14:22;;;;;;;3.72;2.10;;;29.20;91.30;;;;;;5107827;28;20139;-49
2021/04/29 12:16:49;;;;;;;4.13;2.50;;;29.70;90.50;;;;;;5093056;28;20093;-49
2021/04/29 12:19:23;;;;;;;6.78;2.47;;;29.00;90.30;;;;;;5093264;28;20028;-49
2021/04/29 12:21:49;;;;;;;5.30;2.40;;;29.50;89.90;;;;;;5092989;28;20028;-49
2021/04/29 12:24:15;;;;;;;4.32;2.40;;;30.00;90.00;;;;;;5092802;28;20367;-48
2021/04/29 12:26:42;;;;;;;3.65;2.30;;;29.80;88.30;;;;;;5089426;28;20059;-50
2021/04/29 12:29:11;;;;;;;5.25;2.92;;;29.40;87.70;;;;;;5075478;28;20085;-48
2021/04/29 12:31:38;;;;;;;6.20;2.45;;;29.10;88.50;;;;;;5077068;28;20033;-49
2021/04/29 12:34:05;;;;;;;5.00;2.20;;;29.50;89.20;;;;;;5076382;28;20031;-48
2021/04/29 12:36:36;;;;;;;3.42;2.65;;;29.70;90.40;;;;;;5076782;28;20040;-49
2021/04/29 12:39:23;;;;;;;4.50;3.38;;;29.20;88.50;;;;;;5091440;28;20503;-49
2021/04/29 12:41:57;;;;;;;6.45;2.80;;;29.10;90.10;;;;;;5076606;28;20029;-48
2021/04/29 12:44:45;;;;;;;4.00;2.20;;;28.70;89.00;;;;;;5075972;28;20035;-50
2021/04/29 12:47:25;;;;;;;6.13;2.50;;;28.40;88.80;;;;;;5076290;28;20120;-49
2021/04/29 12:50:12;;;;;;;4.43;2.20;;;27.10;90.20;;;;;;5055357;28;20043;-49
2021/04/29 12:52:49;;;;;;;5.53;2.20;;;26.80;91.20;;;;;;5055958;28;20081;-49
2021/04/29 12:55:17;;;;;;;4.53;2.88;;;26.80;91.50;;;;;;5072451;28;20034;-48
2021/04/29 12:57:43;;;;;;;9.05;2.70;;;26.70;92.00;;;;;;5072550;28;20036;-47
2021/04/29 13:00:11;;;;;;;11.13;5.80;;;26.50;92.50;;;;;;5055506;28;20040;-49